sensor_id;sensor_type;location;lat;lon;timestamp;pressure;altitude;pressure_sealevel;temperature;humidity
70589;BME280;58152;49.202;18.744;2024-01-30T00:02:16;99416.88;;;-0.36;67.92
70589;BME280;58152;49.202;18.744;2024-01-30T00:04:42;99408.16;;;-0.39;67.72
70589;BME280;58152;49.202;18.744;2024-01-30T00:07:07;99412.50;;;-0.38;67.79
70589;BME280;58152;49.202;18.744;2024-01-30T00:09:33;99406.47;;;-0.39;68.23
70589;BME280;58152;49.202;18.744;2024-01-30T00:11:58;99402.97;;;-0.41;68.20
70589;BME280;58152;49.202;18.744;2024-01-30T00:14:24;99406.41;;;-0.40;67.89
70589;BME280;58152;49.202;18.744;2024-01-30T00:16:50;99411.50;;;-0.42;68.13
70589;BME280;58152;49.202;18.744;2024-01-30T00:19:17;99409.81;;;-0.41;67.89
70589;BME280;58152;49.202;18.744;2024-01-30T00:21:42;99413.28;;;-0.41;68.60
70589;BME280;58152;49.202;18.744;2024-01-30T00:24:08;99400.31;;;-0.42;68.54
70589;BME280;58152;49.202;18.744;2024-01-30T00:26:33;99408.06;;;-0.42;68.17
70589;BME280;58152;49.202;18.744;2024-01-30T00:28:59;99398.53;;;-0.45;68.46
70589;BME280;58152;49.202;18.744;2024-01-30T00:31:24;99404.50;;;-0.46;68.30
70589;BME280;58152;49.202;18.744;2024-01-30T00:33:50;99390.75;;;-0.46;67.90
70589;BME280;58152;49.202;18.744;2024-01-30T00:36:15;99389.03;;;-0.46;68.53
70589;BME280;58152;49.202;18.744;2024-01-30T00:38:40;99390.75;;;-0.46;67.89
70589;BME280;58152;49.202;18.744;2024-01-30T00:41:07;99401.84;;;-0.49;68.26
70589;BME280;58152;49.202;18.744;2024-01-30T00:43:33;99399.28;;;-0.49;68.23
70589;BME280;58152;49.202;18.744;2024-01-30T00:45:58;99407.84;;;-0.50;68.32
70589;BME280;58152;49.202;18.744;2024-01-30T00:48:24;99415.47;;;-0.53;67.85
70589;BME280;58152;49.202;18.744;2024-01-30T00:50:49;99403.34;;;-0.56;68.12
70589;BME280;58152;49.202;18.744;2024-01-30T00:53:15;99398.13;;;-0.59;68.06
70589;BME280;58152;49.202;18.744;2024-01-30T00:55:40;99404.03;;;-0.61;68.06
70589;BME280;58152;49.202;18.744;2024-01-30T00:58:06;99403.13;;;-0.63;68.23
70589;BME280;58152;49.202;18.744;2024-01-30T01:00:32;99399.59;;;-0.65;68.31
70589;BME280;58152;49.202;18.744;2024-01-30T01:03:01;99398.69;;;-0.67;68.25
70589;BME280;58152;49.202;18.744;2024-01-30T01:05:27;99400.28;;;-0.71;67.93
70589;BME280;58152;49.202;18.744;2024-01-30T01:07:52;99399.31;;;-0.74;68.24
70589;BME280;58152;49.202;18.744;2024-01-30T01:10:18;99395.75;;;-0.78;68.35
70589;BME280;58152;49.202;18.744;2024-01-30T01:12:44;99398.34;;;-0.78;68.21
70589;BME280;58152;49.202;18.744;2024-01-30T01:15:10;99403.59;;;-0.75;67.88
70589;BME280;58152;49.202;18.744;2024-01-30T01:17:36;99400.16;;;-0.75;68.77
70589;BME280;58152;49.202;18.744;2024-01-30T01:20:02;99395.88;;;-0.75;68.35
70589;BME280;58152;49.202;18.744;2024-01-30T01:22:28;99401.06;;;-0.73;68.67
70589;BME280;58152;49.202;18.744;2024-01-30T01:24:54;99408.88;;;-0.72;68.15
70589;BME280;58152;49.202;18.744;2024-01-30T01:27:19;99401.91;;;-0.74;68.55
70589;BME280;58152;49.202;18.744;2024-01-30T01:29:45;99405.41;;;-0.72;68.47
70589;BME280;58152;49.202;18.744;2024-01-30T01:32:10;99399.38;;;-0.73;68.42
70589;BME280;58152;49.202;18.744;2024-01-30T01:34:36;99401.03;;;-0.75;68.76
70589;BME280;58152;49.202;18.744;2024-01-30T01:37:01;99406.19;;;-0.75;68.39
70589;BME280;58152;49.202;18.744;2024-01-30T01:39:27;99404.41;;;-0.78;68.65
70589;BME280;58152;49.202;18.744;2024-01-30T01:41:52;99403.50;;;-0.78;68.30
70589;BME280;58152;49.202;18.744;2024-01-30T01:44:18;99404.28;;;-0.81;68.35
70589;BME280;58152;49.202;18.744;2024-01-30T01:46:44;99409.41;;;-0.82;68.56
70589;BME280;58152;49.202;18.744;2024-01-30T01:49:10;99411.03;;;-0.84;68.98
70589;BME280;58152;49.202;18.744;2024-01-30T01:51:36;99406.69;;;-0.87;69.14
70589;BME280;58152;49.202;18.744;2024-01-30T01:54:04;99400.53;;;-0.90;68.82
70589;BME280;58152;49.202;18.744;2024-01-30T01:56:31;99390.16;;;-0.92;68.56
70589;BME280;58152;49.202;18.744;2024-01-30T01:59:00;99404.75;;;-0.92;68.98
70589;BME280;58152;49.202;18.744;2024-01-30T02:01:31;99404.72;;;-0.94;69.41
70589;BME280;58152;49.202;18.744;2024-01-30T02:03:58;99409.84;;;-0.94;69.37
70589;BME280;58152;49.202;18.744;2024-01-30T02:06:24;99399.59;;;-0.92;69.04
70589;BME280;58152;49.202;18.744;2024-01-30T02:08:49;99400.44;;;-0.93;69.23
70589;BME280;58152;49.202;18.744;2024-01-30T02:11:15;99396.09;;;-0.94;68.92
70589;BME280;58152;49.202;18.744;2024-01-30T02:13:42;99390.00;;;-0.96;69.10
70589;BME280;58152;49.202;18.744;2024-01-30T02:16:07;99395.94;;;-0.99;69.30
70589;BME280;58152;49.202;18.744;2024-01-30T02:18:32;99392.50;;;-0.99;69.30
70589;BME280;58152;49.202;18.744;2024-01-30T02:20:59;99382.09;;;-1.03;68.87
70589;BME280;58152;49.202;18.744;2024-01-30T02:23:30;99390.75;;;-1.00;69.10
70589;BME280;58152;49.202;18.744;2024-01-30T02:25:56;99389.06;;;-1.00;68.95
70589;BME280;58152;49.202;18.744;2024-01-30T02:28:21;99392.50;;;-0.99;69.50
70589;BME280;58152;49.202;18.744;2024-01-30T02:30:46;99389.84;;;-1.01;69.03
70589;BME280;58152;49.202;18.744;2024-01-30T02:33:12;99388.94;;;-1.03;69.23
70589;BME280;58152;49.202;18.744;2024-01-30T02:35:38;99392.41;;;-1.03;68.88
70589;BME280;58152;49.202;18.744;2024-01-30T02:38:03;99388.03;;;-1.05;68.77
70589;BME280;58152;49.202;18.744;2024-01-30T02:40:29;99388.78;;;-1.08;68.44
70589;BME280;58152;49.202;18.744;2024-01-30T02:42:55;99393.91;;;-1.09;68.91
70589;BME280;58152;49.202;18.744;2024-01-30T02:45:21;99384.41;;;-1.10;69.30
70589;BME280;58152;49.202;18.744;2024-01-30T02:47:46;99388.69;;;-1.11;69.24
70589;BME280;58152;49.202;18.744;2024-01-30T02:50:12;99384.31;;;-1.13;69.01
70589;BME280;58152;49.202;18.744;2024-01-30T02:52:37;99379.06;;;-1.16;68.97
70589;BME280;58152;49.202;18.744;2024-01-30T02:55:03;99379.00;;;-1.18;69.45
70589;BME280;58152;49.202;18.744;2024-01-30T02:57:29;99379.00;;;-1.18;69.29
70589;BME280;58152;49.202;18.744;2024-01-30T02:59:54;99379.78;;;-1.20;69.23
70589;BME280;58152;49.202;18.744;2024-01-30T03:02:19;99382.31;;;-1.22;69.43
70589;BME280;58152;49.202;18.744;2024-01-30T03:04:45;99377.16;;;-1.22;69.34
70589;BME280;58152;49.202;18.744;2024-01-30T03:07:10;99375.41;;;-1.23;68.92
70589;BME280;58152;49.202;18.744;2024-01-30T03:09:37;99372.75;;;-1.24;69.21
70589;BME280;58152;49.202;18.744;2024-01-30T03:12:03;99380.56;;;-1.23;69.20
70589;BME280;58152;49.202;18.744;2024-01-30T03:14:30;99377.19;;;-1.20;69.38
70589;BME280;58152;49.202;18.744;2024-01-30T03:16:57;99367.69;;;-1.23;69.45
70589;BME280;58152;49.202;18.744;2024-01-30T03:19:22;99371.06;;;-1.24;69.33
70589;BME280;58152;49.202;18.744;2024-01-30T03:21:47;99377.03;;;-1.25;69.56
70589;BME280;58152;49.202;18.744;2024-01-30T03:24:13;99379.53;;;-1.28;69.89
70589;BME280;58152;49.202;18.744;2024-01-30T03:26:38;99375.97;;;-1.32;69.26
70589;BME280;58152;49.202;18.744;2024-01-30T03:29:04;99382.84;;;-1.32;69.86
70589;BME280;58152;49.202;18.744;2024-01-30T03:31:29;99381.06;;;-1.33;69.75
70589;BME280;58152;49.202;18.744;2024-01-30T03:33:54;99376.72;;;-1.34;69.40
70589;BME280;58152;49.202;18.744;2024-01-30T03:36:20;99381.81;;;-1.37;69.50
70589;BME280;58152;49.202;18.744;2024-01-30T03:38:45;99376.53;;;-1.40;69.76
70589;BME280;58152;49.202;18.744;2024-01-30T03:41:11;99384.38;;;-1.37;69.78
70589;BME280;58152;49.202;18.744;2024-01-30T03:43:36;99373.97;;;-1.40;69.48
70589;BME280;58152;49.202;18.744;2024-01-30T03:46:02;99374.78;;;-1.41;69.13
70589;BME280;58152;49.202;18.744;2024-01-30T03:48:29;99378.13;;;-1.44;69.10
70589;BME280;58152;49.202;18.744;2024-01-30T03:50:54;99380.66;;;-1.45;69.62
70589;BME280;58152;49.202;18.744;2024-01-30T03:53:19;99380.59;;;-1.47;69.27
70589;BME280;58152;49.202;18.744;2024-01-30T03:55:45;99379.72;;;-1.47;69.63
70589;BME280;58152;49.202;18.744;2024-01-30T03:58:10;99371.91;;;-1.50;69.74
70589;BME280;58152;49.202;18.744;2024-01-30T04:00:36;99377.91;;;-1.50;69.79
70589;BME280;58152;49.202;18.744;2024-01-30T04:03:02;99376.22;;;-1.49;69.69
70589;BME280;58152;49.202;18.744;2024-01-30T04:05:27;99371.03;;;-1.51;69.45
70589;BME280;58152;49.202;18.744;2024-01-30T04:07:52;99378.69;;;-1.52;70.02
70589;BME280;58152;49.202;18.744;2024-01-30T04:10:18;99378.69;;;-1.52;70.01
70589;BME280;58152;49.202;18.744;2024-01-30T04:12:43;99379.50;;;-1.54;70.06
70589;BME280;58152;49.202;18.744;2024-01-30T04:15:09;99383.78;;;-1.54;69.65
70589;BME280;58152;49.202;18.744;2024-01-30T04:17:34;99378.53;;;-1.57;69.65
70589;BME280;58152;49.202;18.744;2024-01-30T04:20:00;99383.66;;;-1.57;70.09
70589;BME280;58152;49.202;18.744;2024-01-30T04:22:25;99384.53;;;-1.57;69.74
70589;BME280;58152;49.202;18.744;2024-01-30T04:24:50;99385.41;;;-1.56;70.46
70589;BME280;58152;49.202;18.744;2024-01-30T04:27:16;99380.19;;;-1.59;69.95
70589;BME280;58152;49.202;18.744;2024-01-30T04:29:41;99372.44;;;-1.59;70.53
70589;BME280;58152;49.202;18.744;2024-01-30T04:32:06;99383.94;;;-1.49;70.39
70589;BME280;58152;49.202;18.744;2024-01-30T04:34:32;99378.16;;;-1.42;71.08
70589;BME280;58152;49.202;18.744;2024-01-30T04:36:57;99381.81;;;-1.37;70.62
70589;BME280;58152;49.202;18.744;2024-01-30T04:39:23;99383.44;;;-1.39;70.74
70589;BME280;58152;49.202;18.744;2024-01-30T04:41:48;99386.72;;;-1.43;70.44
70589;BME280;58152;49.202;18.744;2024-01-30T04:44:14;99380.66;;;-1.45;70.13
70589;BME280;58152;49.202;18.744;2024-01-30T04:46:39;99380.50;;;-1.50;70.23
70589;BME280;58152;49.202;18.744;2024-01-30T04:49:05;99384.63;;;-1.55;70.57
70589;BME280;58152;49.202;18.744;2024-01-30T04:51:32;99384.63;;;-1.55;70.79
70589;BME280;58152;49.202;18.744;2024-01-30T04:53:58;99398.28;;;-1.56;70.24
70589;BME280;58152;49.202;18.744;2024-01-30T04:56:24;99389.53;;;-1.61;70.26
70589;BME280;58152;49.202;18.744;2024-01-30T04:58:49;99393.63;;;-1.66;69.87
70589;BME280;58152;49.202;18.744;2024-01-30T05:01:18;99396.28;;;-1.65;70.18
70589;BME280;58152;49.202;18.744;2024-01-30T05:03:43;99390.19;;;-1.67;70.51
70589;BME280;58152;49.202;18.744;2024-01-30T05:06:09;99391.03;;;-1.68;70.56
70589;BME280;58152;49.202;18.744;2024-01-30T05:08:35;99394.34;;;-1.70;70.38
70589;BME280;58152;49.202;18.744;2024-01-30T05:11:02;99405.50;;;-1.70;70.19
70589;BME280;58152;49.202;18.744;2024-01-30T05:13:30;99396.00;;;-1.72;70.26
70589;BME280;58152;49.202;18.744;2024-01-30T05:15:56;99392.56;;;-1.73;70.35
70589;BME280;58152;49.202;18.744;2024-01-30T05:18:22;99394.19;;;-1.75;70.34
70589;BME280;58152;49.202;18.744;2024-01-30T05:20:49;99389.91;;;-1.74;70.59
70589;BME280;58152;49.202;18.744;2024-01-30T05:23:14;99400.28;;;-1.73;70.22
70589;BME280;58152;49.202;18.744;2024-01-30T05:25:49;99400.31;;;-1.71;70.56
70589;BME280;58152;49.202;18.744;2024-01-30T05:28:15;99404.56;;;-1.73;71.03
70589;BME280;58152;49.202;18.744;2024-01-30T05:30:40;99401.91;;;-1.75;70.58
70589;BME280;58152;49.202;18.744;2024-01-30T05:33:08;99398.47;;;-1.75;70.66
70589;BME280;58152;49.202;18.744;2024-01-30T05:35:35;99403.53;;;-1.78;70.63
70589;BME280;58152;49.202;18.744;2024-01-30T05:38:03;99406.88;;;-1.80;71.36
70589;BME280;58152;49.202;18.744;2024-01-30T05:40:34;99406.09;;;-1.78;71.05
70589;BME280;58152;49.202;18.744;2024-01-30T05:43:02;99407.88;;;-1.76;71.33
70589;BME280;58152;49.202;18.744;2024-01-30T05:45:28;99406.19;;;-1.75;71.16
70589;BME280;58152;49.202;18.744;2024-01-30T05:47:53;99400.16;;;-1.76;70.76
70589;BME280;58152;49.202;18.744;2024-01-30T05:50:19;99397.63;;;-1.74;70.73
70589;BME280;58152;49.202;18.744;2024-01-30T05:52:48;99396.66;;;-1.78;70.45
70589;BME280;58152;49.202;18.744;2024-01-30T05:55:13;99405.34;;;-1.74;70.81
70589;BME280;58152;49.202;18.744;2024-01-30T05:57:42;99401.03;;;-1.75;70.80
70589;BME280;58152;49.202;18.744;2024-01-30T06:00:13;99395.78;;;-1.78;70.56
70589;BME280;58152;49.202;18.744;2024-01-30T06:02:39;99401.81;;;-1.78;70.86
70589;BME280;58152;49.202;18.744;2024-01-30T06:05:04;99400.03;;;-1.79;70.85
70589;BME280;58152;49.202;18.744;2024-01-30T06:07:30;99403.34;;;-1.83;70.39
70589;BME280;58152;49.202;18.744;2024-01-30T06:09:55;99401.69;;;-1.81;70.67
70589;BME280;58152;49.202;18.744;2024-01-30T06:15:50;99405.13;;;-1.81;71.15
70589;BME280;58152;49.202;18.744;2024-01-30T06:18:25;99403.34;;;-1.83;70.67
70589;BME280;58152;49.202;18.744;2024-01-30T06:21:01;99399.81;;;-1.85;70.72
70589;BME280;58152;49.202;18.744;2024-01-30T06:23:32;99399.00;;;-1.84;70.69
70589;BME280;58152;49.202;18.744;2024-01-30T06:26:07;99391.94;;;-1.90;70.57
70589;BME280;58152;49.202;18.744;2024-01-30T06:28:38;99391.78;;;-1.94;70.95
70589;BME280;58152;49.202;18.744;2024-01-30T06:31:07;99391.78;;;-1.94;70.55
70589;BME280;58152;49.202;18.744;2024-01-30T06:34:24;99412.53;;;-1.90;71.13
70589;BME280;58152;49.202;18.744;2024-01-30T06:36:56;99398.56;;;-1.96;70.69
70589;BME280;58152;49.202;18.744;2024-01-30T06:39:21;99402.09;;;-1.93;71.05
70589;BME280;58152;49.202;18.744;2024-01-30T06:41:47;99403.81;;;-1.93;70.78
70589;BME280;58152;49.202;18.744;2024-01-30T06:44:12;99402.03;;;-1.96;70.70
70589;BME280;58152;49.202;18.744;2024-01-30T06:46:38;99409.91;;;-1.91;70.78
70589;BME280;58152;49.202;18.744;2024-01-30T06:49:04;99398.66;;;-1.93;70.66
70589;BME280;58152;49.202;18.744;2024-01-30T06:51:29;99402.94;;;-1.94;71.05
70589;BME280;58152;49.202;18.744;2024-01-30T06:53:55;99411.53;;;-1.93;70.84
70589;BME280;58152;49.202;18.744;2024-01-30T06:56:20;99402.03;;;-1.96;71.11
70589;BME280;58152;49.202;18.744;2024-01-30T06:58:49;99406.22;;;-1.98;71.06
70589;BME280;58152;49.202;18.744;2024-01-30T07:01:15;99413.19;;;-1.95;70.91
70589;BME280;58152;49.202;18.744;2024-01-30T07:03:41;99413.22;;;-1.94;71.60
70589;BME280;58152;49.202;18.744;2024-01-30T07:06:10;99402.09;;;-1.93;70.81
70589;BME280;58152;49.202;18.744;2024-01-30T07:08:39;99413.31;;;-1.92;71.47
70589;BME280;58152;49.202;18.744;2024-01-30T07:11:05;99407.34;;;-1.91;71.53
70589;BME280;58152;49.202;18.744;2024-01-30T07:13:31;99407.34;;;-1.91;71.25
70589;BME280;58152;49.202;18.744;2024-01-30T07:15:56;99411.66;;;-1.90;70.96
70589;BME280;58152;49.202;18.744;2024-01-30T07:18:22;99414.22;;;-1.90;71.28
70589;BME280;58152;49.202;18.744;2024-01-30T07:20:47;99418.72;;;-1.85;71.00
70589;BME280;58152;49.202;18.744;2024-01-30T07:23:15;99418.78;;;-1.83;70.84
70589;BME280;58152;49.202;18.744;2024-01-30T07:25:43;99410.13;;;-1.85;71.17
70589;BME280;58152;49.202;18.744;2024-01-30T07:28:08;99427.47;;;-1.80;71.26
70589;BME280;58152;49.202;18.744;2024-01-30T07:30:42;99419.75;;;-1.80;70.71
70589;BME280;58152;49.202;18.744;2024-01-30T07:33:07;99423.19;;;-1.79;70.87
70589;BME280;58152;49.202;18.744;2024-01-30T07:35:34;99428.44;;;-1.77;71.01
70589;BME280;58152;49.202;18.744;2024-01-30T07:37:59;99409.38;;;-1.83;70.58
70589;BME280;58152;49.202;18.744;2024-01-30T07:40:25;99416.31;;;-1.80;71.06
70589;BME280;58152;49.202;18.744;2024-01-30T07:42:50;99416.31;;;-1.80;70.82
70589;BME280;58152;49.202;18.744;2024-01-30T07:45:16;99410.34;;;-1.79;70.47
70589;BME280;58152;49.202;18.744;2024-01-30T07:47:41;99416.56;;;-1.74;70.90
70589;BME280;58152;49.202;18.744;2024-01-30T07:50:08;99413.03;;;-1.76;71.03
70589;BME280;58152;49.202;18.744;2024-01-30T07:52:33;99417.47;;;-1.72;70.89
70589;BME280;58152;49.202;18.744;2024-01-30T07:54:59;99413.84;;;-1.77;71.04
70589;BME280;58152;49.202;18.744;2024-01-30T07:57:24;99413.03;;;-1.76;70.41
70589;BME280;58152;49.202;18.744;2024-01-30T07:59:50;99413.06;;;-1.74;70.86
70589;BME280;58152;49.202;18.744;2024-01-30T08:02:15;99412.19;;;-1.75;71.31
70589;BME280;58152;49.202;18.744;2024-01-30T08:04:41;99411.50;;;-1.71;70.76
70589;BME280;58152;49.202;18.744;2024-01-30T08:07:06;99409.78;;;-1.70;71.01
70589;BME280;58152;49.202;18.744;2024-01-30T08:09:32;99411.72;;;-1.65;70.72
70589;BME280;58152;49.202;18.744;2024-01-30T08:11:57;99405.69;;;-1.65;70.83
70589;BME280;58152;49.202;18.744;2024-01-30T08:14:23;99404.88;;;-1.64;70.81
70589;BME280;58152;49.202;18.744;2024-01-30T08:16:48;99415.19;;;-1.64;70.73
70589;BME280;58152;49.202;18.744;2024-01-30T08:19:17;99414.22;;;-1.66;70.89
70589;BME280;58152;49.202;18.744;2024-01-30T08:21:42;99406.63;;;-1.63;70.68
70589;BME280;58152;49.202;18.744;2024-01-30T08:24:08;99413.53;;;-1.62;71.32
70589;BME280;58152;49.202;18.744;2024-01-30T08:26:33;99413.66;;;-1.59;70.76
70589;BME280;58152;49.202;18.744;2024-01-30T08:28:59;99416.31;;;-1.56;71.03
70589;BME280;58152;49.202;18.744;2024-01-30T08:31:25;99412.22;;;-1.51;71.51
70589;BME280;58152;49.202;18.744;2024-01-30T08:33:50;99410.56;;;-1.49;71.00
70589;BME280;58152;49.202;18.744;2024-01-30T08:36:17;99413.28;;;-1.44;71.12
70589;BME280;58152;49.202;18.744;2024-01-30T08:38:42;99419.47;;;-1.39;71.20
70589;BME280;58152;49.202;18.744;2024-01-30T08:41:08;99410.13;;;-1.37;71.22
70589;BME280;58152;49.202;18.744;2024-01-30T08:43:37;99405.78;;;-1.38;71.22
70589;BME280;58152;49.202;18.744;2024-01-30T08:46:02;99407.63;;;-1.34;71.09
70589;BME280;58152;49.202;18.744;2024-01-30T08:48:29;99408.50;;;-1.34;70.70
70589;BME280;58152;49.202;18.744;2024-01-30T08:50:54;99411.16;;;-1.32;71.09
70589;BME280;58152;49.202;18.744;2024-01-30T08:53:19;99403.44;;;-1.32;70.58
70589;BME280;58152;49.202;18.744;2024-01-30T08:55:45;99412.22;;;-1.25;70.48
70589;BME280;58152;49.202;18.744;2024-01-30T08:58:11;99411.50;;;-1.21;70.15
70589;BME280;58152;49.202;18.744;2024-01-30T09:00:36;99411.66;;;-1.17;70.23
70589;BME280;58152;49.202;18.744;2024-01-30T09:03:02;99411.06;;;-1.10;70.74
70589;BME280;58152;49.202;18.744;2024-01-30T09:05:28;99402.53;;;-1.07;70.20
70589;BME280;58152;49.202;18.744;2024-01-30T09:07:56;99404.38;;;-1.05;70.56
70589;BME280;58152;49.202;18.744;2024-01-30T09:10:22;99413.84;;;-1.04;70.52
70589;BME280;58152;49.202;18.744;2024-01-30T09:12:50;99402.69;;;-1.03;70.31
70589;BME280;58152;49.202;18.744;2024-01-30T09:15:16;99396.81;;;-0.98;70.88
70589;BME280;58152;49.202;18.744;2024-01-30T09:17:46;99405.63;;;-0.92;70.51
70589;BME280;58152;49.202;18.744;2024-01-30T09:20:11;99401.25;;;-0.94;70.75
70589;BME280;58152;49.202;18.744;2024-01-30T09:22:52;99397.09;;;-0.91;70.33
70589;BME280;58152;49.202;18.744;2024-01-30T09:25:17;99403.19;;;-0.87;70.45
70589;BME280;58152;49.202;18.744;2024-01-30T09:27:46;99411.03;;;-0.84;70.55
70589;BME280;58152;49.202;18.744;2024-01-30T09:30:12;99398.97;;;-0.85;70.76
70589;BME280;58152;49.202;18.744;2024-01-30T09:32:39;99394.59;;;-0.88;70.51
70589;BME280;58152;49.202;18.744;2024-01-30T09:35:05;99399.81;;;-0.86;70.74
70589;BME280;58152;49.202;18.744;2024-01-30T09:37:31;99389.59;;;-0.83;70.66
70589;BME280;58152;49.202;18.744;2024-01-30T09:39:56;99395.69;;;-0.81;71.42
70589;BME280;58152;49.202;18.744;2024-01-30T09:42:36;99394.84;;;-0.80;71.36
70589;BME280;58152;49.202;18.744;2024-01-30T09:45:03;99388.84;;;-0.79;71.17
70589;BME280;58152;49.202;18.744;2024-01-30T09:47:40;99387.41;;;-0.71;71.37
70589;BME280;58152;49.202;18.744;2024-01-30T09:50:10;99380.69;;;-0.66;71.64
70589;BME280;58152;49.202;18.744;2024-01-30T09:52:36;99374.94;;;-0.57;71.67
70589;BME280;58152;49.202;18.744;2024-01-30T09:55:03;99385.09;;;-0.35;71.09
70589;BME280;58152;49.202;18.744;2024-01-30T09:57:28;99375.47;;;-0.10;71.42
70589;BME280;58152;49.202;18.744;2024-01-30T09:59:54;99375.25;;;0.11;71.25
70589;BME280;58152;49.202;18.744;2024-01-30T10:02:24;99368.78;;;0.27;71.04
70589;BME280;58152;49.202;18.744;2024-01-30T10:04:52;99363.25;;;0.44;70.91
70589;BME280;58152;49.202;18.744;2024-01-30T10:07:52;99364.72;;;0.68;70.79
70589;BME280;58152;49.202;18.744;2024-01-30T10:10:17;99360.91;;;0.87;70.14
70589;BME280;58152;49.202;18.744;2024-01-30T10:12:43;99359.56;;;1.01;69.85
70589;BME280;58152;49.202;18.744;2024-01-30T10:15:14;99353.13;;;1.21;69.58
70589;BME280;58152;49.202;18.744;2024-01-30T10:17:54;99342.25;;;1.35;69.03
70589;BME280;58152;49.202;18.744;2024-01-30T10:20:24;99342.56;;;1.50;69.18
70589;BME280;58152;49.202;18.744;2024-01-30T10:22:50;99344.81;;;1.74;69.28
70589;BME280;58152;49.202;18.744;2024-01-30T10:25:15;99340.84;;;1.90;69.27
70589;BME280;58152;49.202;18.744;2024-01-30T10:27:45;99336.84;;;2.06;68.68
70589;BME280;58152;49.202;18.744;2024-01-30T10:32:58;99325.44;;;2.40;68.46
70589;BME280;58152;49.202;18.744;2024-01-30T10:35:34;99312.75;;;2.57;68.32
70589;BME280;58152;49.202;18.744;2024-01-30T10:38:00;99312.19;;;2.73;67.98
70589;BME280;58152;49.202;18.744;2024-01-30T10:40:29;99309.91;;;2.91;67.57
70589;BME280;58152;49.202;18.744;2024-01-30T10:42:55;99305.81;;;3.05;67.38
70589;BME280;58152;49.202;18.744;2024-01-30T10:45:25;99292.19;;;3.20;66.99
70589;BME280;58152;49.202;18.744;2024-01-30T10:48:06;99296.78;;;3.38;66.63
70589;BME280;58152;49.202;18.744;2024-01-30T10:50:43;99296.22;;;3.58;66.56
70589;BME280;58152;49.202;18.744;2024-01-30T11:00:14;99274.38;;;4.15;65.57
70589;BME280;58152;49.202;18.744;2024-01-30T11:03:07;99271.16;;;4.39;65.45
70589;BME280;58152;49.202;18.744;2024-01-30T11:05:58;99266.09;;;4.52;65.13
70589;BME280;58152;49.202;18.744;2024-01-30T11:08:40;99257.59;;;4.69;64.48
70589;BME280;58152;49.202;18.744;2024-01-30T11:11:23;99263.84;;;4.92;64.14
70589;BME280;58152;49.202;18.744;2024-01-30T11:14:07;99250.91;;;5.03;63.69
70589;BME280;58152;49.202;18.744;2024-01-30T11:24:52;99242.66;;;5.77;62.77
70589;BME280;58152;49.202;18.744;2024-01-30T11:34:23;99235.00;;;6.40;60.23
70589;BME280;58152;49.202;18.744;2024-01-30T11:44:07;99221.91;;;7.23;58.61
70589;BME280;58152;49.202;18.744;2024-01-30T11:46:53;99203.59;;;7.35;58.82
70589;BME280;58152;49.202;18.744;2024-01-30T11:50:15;99195.69;;;7.58;56.05
